sensor_id;sensor_type;location;lat;lon;timestamp;pressure;altitude;pressure_sealevel;temperature;humidity
10145;BME280;5113;41.822;23.564;2023-04-01T00:02:12;-11104.72;;;6.16;98.15
10145;BME280;5113;41.822;23.564;2023-04-01T00:05:19;-11108.78;;;6.31;96.76
10145;BME280;5113;41.822;23.564;2023-04-01T00:08:26;-11116.09;;;6.57;95.93
10145;BME280;5113;41.822;23.564;2023-04-01T00:11:33;-11113.16;;;6.47;95.20
10145;BME280;5113;41.822;23.564;2023-04-01T00:14:39;-11114.00;;;6.50;95.14
10145;BME280;5113;41.822;23.564;2023-04-01T00:17:47;-11114.28;;;6.51;95.60
10145;BME280;5113;41.822;23.564;2023-04-01T00:20:54;-11110.47;;;6.37;96.67
10145;BME280;5113;41.822;23.564;2023-04-01T00:24:00;-11101.06;;;6.03;98.27
10145;BME280;5113;41.822;23.564;2023-04-01T00:27:06;-11106.56;;;6.23;98.47
10145;BME280;5113;41.822;23.564;2023-04-01T00:30:13;-11103.19;;;6.11;99.44
10145;BME280;5113;41.822;23.564;2023-04-01T00:33:21;-11075.94;;;5.12;100.00
10145;BME280;5113;41.822;23.564;2023-04-01T00:36:27;-11060.78;;;4.57;100.00
10145;BME280;5113;41.822;23.564;2023-04-01T00:39:34;-11073.56;;;5.04;100.00
10145;BME280;5113;41.822;23.564;2023-04-01T00:42:40;-11082.69;;;5.37;100.00
10145;BME280;5113;41.822;23.564;2023-04-01T00:45:48;-11089.69;;;5.62;100.00
10145;BME280;5113;41.822;23.564;2023-04-01T00:48:56;-11081.84;;;5.34;100.00
10145;BME280;5113;41.822;23.564;2023-04-01T00:52:04;-11093.91;;;5.77;100.00
10145;BME280;5113;41.822;23.564;2023-04-01T00:55:11;-11080.16;;;5.27;100.00
10145;BME280;5113;41.822;23.564;2023-04-01T00:58:21;-11089.56;;;5.61;100.00
10145;BME280;5113;41.822;23.564;2023-04-01T01:01:30;-11097.41;;;5.90;100.00
10145;BME280;5113;41.822;23.564;2023-04-01T01:04:38;-11082.53;;;5.36;100.00
10145;BME280;5113;41.822;23.564;2023-04-01T01:07:49;-11061.91;;;4.61;100.00
10145;BME280;5113;41.822;23.564;2023-04-01T01:10:59;-11074.53;;;5.07;100.00
10145;BME280;5113;41.822;23.564;2023-04-01T01:14:12;-11074.81;;;5.08;100.00
10145;BME280;5113;41.822;23.564;2023-04-01T01:17:32;-11084.50;;;5.43;100.00
10145;BME280;5113;41.822;23.564;2023-04-01T01:21:02;-11090.97;;;5.67;100.00
10145;BME280;5113;41.822;23.564;2023-04-01T01:24:42;-11089.84;;;5.62;100.00
10145;BME280;5113;41.822;23.564;2023-04-01T01:27:58;-11086.75;;;5.51;100.00
10145;BME280;5113;41.822;23.564;2023-04-01T01:31:15;-11082.94;;;5.38;100.00
10145;BME280;5113;41.822;23.564;2023-04-01T01:34:26;-11083.22;;;5.39;100.00
10145;BME280;5113;41.822;23.564;2023-04-01T01:37:37;-11065.84;;;4.76;100.00
10145;BME280;5113;41.822;23.564;2023-04-01T01:40:48;-11072.84;;;5.01;100.00
10145;BME280;5113;41.822;23.564;2023-04-01T01:43:59;-11085.47;;;5.47;100.00
10145;BME280;5113;41.822;23.564;2023-04-01T01:47:09;-11076.50;;;5.14;100.00
10145;BME280;5113;41.822;23.564;2023-04-01T01:50:16;-11082.53;;;5.36;100.00
10145;BME280;5113;41.822;23.564;2023-04-01T01:53:25;-11084.06;;;5.42;100.00
10145;BME280;5113;41.822;23.564;2023-04-01T01:56:32;-11078.19;;;5.20;100.00
10145;BME280;5113;41.822;23.564;2023-04-01T01:59:41;-11089.69;;;5.62;100.00
10145;BME280;5113;41.822;23.564;2023-04-01T02:02:50;-11088.28;;;5.57;100.00
10145;BME280;5113;41.822;23.564;2023-04-01T02:05:59;-11063.88;;;4.69;100.00
10145;BME280;5113;41.822;23.564;2023-04-01T02:09:08;-11059.09;;;4.51;100.00
10145;BME280;5113;41.822;23.564;2023-04-01T02:12:16;-11073.41;;;5.03;100.00
10145;BME280;5113;41.822;23.564;2023-04-01T02:15:27;-11066.25;;;4.77;100.00
10145;BME280;5113;41.822;23.564;2023-04-01T02:18:36;-11052.91;;;4.29;100.00
10145;BME280;5113;41.822;23.564;2023-04-01T02:21:44;-11064.84;;;4.72;100.00
10145;BME280;5113;41.822;23.564;2023-04-01T02:24:56;-11063.31;;;4.67;100.00
10145;BME280;5113;41.822;23.564;2023-04-01T02:28:05;-11070.19;;;4.91;100.00
10145;BME280;5113;41.822;23.564;2023-04-01T02:31:12;-11068.34;;;4.85;100.00
10145;BME280;5113;41.822;23.564;2023-04-01T02:34:21;-11077.34;;;5.17;100.00
10145;BME280;5113;41.822;23.564;2023-04-01T02:37:29;-11054.88;;;4.36;100.00
10145;BME280;5113;41.822;23.564;2023-04-01T02:40:46;-11063.03;;;4.65;100.00
10145;BME280;5113;41.822;23.564;2023-04-01T02:43:52;-11062.19;;;4.62;100.00
10145;BME280;5113;41.822;23.564;2023-04-01T02:46:59;-11080.28;;;5.28;100.00
10145;BME280;5113;41.822;23.564;2023-04-01T02:50:07;-11068.06;;;4.84;100.00
10145;BME280;5113;41.822;23.564;2023-04-01T02:53:14;-11064.72;;;4.72;100.00
10145;BME280;5113;41.822;23.564;2023-04-01T02:56:22;-11055.44;;;4.38;100.00
10145;BME280;5113;41.822;23.564;2023-04-01T02:59:29;-11047.59;;;4.10;100.00
10145;BME280;5113;41.822;23.564;2023-04-01T03:02:35;-11061.63;;;4.60;100.00
10145;BME280;5113;41.822;23.564;2023-04-01T03:05:41;-11054.19;;;4.34;100.00
10145;BME280;5113;41.822;23.564;2023-04-01T03:08:48;-11048.16;;;4.12;100.00
10145;BME280;5113;41.822;23.564;2023-04-01T03:11:55;-11043.66;;;3.95;100.00
10145;BME280;5113;41.822;23.564;2023-04-01T03:15:02;-11042.25;;;3.90;100.00
10145;BME280;5113;41.822;23.564;2023-04-01T03:18:15;-11050.69;;;4.21;100.00
10145;BME280;5113;41.822;23.564;2023-04-01T03:21:23;-11045.50;;;4.02;100.00
10145;BME280;5113;41.822;23.564;2023-04-01T03:24:29;-11043.66;;;3.95;100.00
10145;BME280;5113;41.822;23.564;2023-04-01T03:27:37;-11043.66;;;3.95;100.00
10145;BME280;5113;41.822;23.564;2023-04-01T03:30:44;-11059.81;;;4.54;100.00
10145;BME280;5113;41.822;23.564;2023-04-01T03:33:50;-11061.19;;;4.59;100.00
10145;BME280;5113;41.822;23.564;2023-04-01T03:36:57;-11057.97;;;4.47;100.00
10145;BME280;5113;41.822;23.564;2023-04-01T03:40:04;-11073.56;;;5.04;100.00
10145;BME280;5113;41.822;23.564;2023-04-01T03:43:12;-11076.22;;;5.13;100.00
10145;BME280;5113;41.822;23.564;2023-04-01T03:46:19;-11059.81;;;4.54;100.00
10145;BME280;5113;41.822;23.564;2023-04-01T03:49:26;-11065.13;;;4.73;100.00
10145;BME280;5113;41.822;23.564;2023-04-01T03:52:32;-11070.75;;;4.93;100.00
10145;BME280;5113;41.822;23.564;2023-04-01T03:55:38;-11050.69;;;4.21;100.00
10145;BME280;5113;41.822;23.564;2023-04-01T03:58:46;-11064.84;;;4.72;100.00
10145;BME280;5113;41.822;23.564;2023-04-01T04:01:52;-11073.84;;;5.05;100.00
10145;BME280;5113;41.822;23.564;2023-04-01T04:04:58;-11066.94;;;4.80;100.00
10145;BME280;5113;41.822;23.564;2023-04-01T04:08:04;-11071.59;;;4.96;100.00
10145;BME280;5113;41.822;23.564;2023-04-01T04:11:11;-11054.47;;;4.35;100.00
10145;BME280;5113;41.822;23.564;2023-04-01T04:14:19;-11061.47;;;4.60;100.00
10145;BME280;5113;41.822;23.564;2023-04-01T04:17:25;-11060.78;;;4.57;100.00
10145;BME280;5113;41.822;23.564;2023-04-01T04:20:31;-11074.13;;;5.06;100.00
10145;BME280;5113;41.822;23.564;2023-04-01T04:23:37;-11080.44;;;5.28;100.00
10145;BME280;5113;41.822;23.564;2023-04-01T04:26:44;-11086.75;;;5.51;100.00
10145;BME280;5113;41.822;23.564;2023-04-01T04:29:51;-11077.47;;;5.18;100.00
10145;BME280;5113;41.822;23.564;2023-04-01T04:32:58;-11084.34;;;5.43;100.00
10145;BME280;5113;41.822;23.564;2023-04-01T04:36:04;-11075.66;;;5.11;100.00
10145;BME280;5113;41.822;23.564;2023-04-01T04:39:11;-11079.31;;;5.24;100.00
10145;BME280;5113;41.822;23.564;2023-04-01T04:42:17;-11088.72;;;5.58;100.00
10145;BME280;5113;41.822;23.564;2023-04-01T04:45:25;-11085.47;;;5.47;100.00
10145;BME280;5113;41.822;23.564;2023-04-01T04:48:31;-11083.38;;;5.39;100.00
10145;BME280;5113;41.822;23.564;2023-04-01T04:51:37;-11063.16;;;4.66;100.00
10145;BME280;5113;41.822;23.564;2023-04-01T04:54:44;-11062.75;;;4.64;100.00
10145;BME280;5113;41.822;23.564;2023-04-01T04:57:50;-11072.84;;;5.01;100.00
10145;BME280;5113;41.822;23.564;2023-04-01T05:00:58;-11058.25;;;4.48;100.00
10145;BME280;5113;41.822;23.564;2023-04-01T05:04:04;-11050.41;;;4.20;100.00
10145;BME280;5113;41.822;23.564;2023-04-01T05:07:11;-11077.63;;;5.18;100.00
10145;BME280;5113;41.822;23.564;2023-04-01T05:10:17;-11092.94;;;5.74;100.00
10145;BME280;5113;41.822;23.564;2023-04-01T05:13:25;-11089.13;;;5.60;100.00
10145;BME280;5113;41.822;23.564;2023-04-01T05:16:33;-11103.19;;;6.11;100.00
10145;BME280;5113;41.822;23.564;2023-04-01T05:19:39;-11101.50;;;6.05;100.00
10145;BME280;5113;41.822;23.564;2023-04-01T05:22:45;-11113.28;;;6.47;100.00
10145;BME280;5113;41.822;23.564;2023-04-01T05:25:51;-11109.22;;;6.33;100.00
10145;BME280;5113;41.822;23.564;2023-04-01T05:28:58;-11132.09;;;7.15;98.67
10145;BME280;5113;41.822;23.564;2023-04-01T05:32:05;-11138.44;;;7.38;96.32
10145;BME280;5113;41.822;23.564;2023-04-01T05:35:12;-11134.06;;;7.22;96.64
10145;BME280;5113;41.822;23.564;2023-04-01T05:38:18;-11135.34;;;7.27;99.12
10145;BME280;5113;41.822;23.564;2023-04-01T05:41:24;-11137.03;;;7.33;97.91
10145;BME280;5113;41.822;23.564;2023-04-01T05:44:31;-11162.47;;;8.25;93.74
10145;BME280;5113;41.822;23.564;2023-04-01T05:47:39;-11145.03;;;7.62;95.31
10145;BME280;5113;41.822;23.564;2023-04-01T05:50:45;-11130.97;;;7.11;100.00
10145;BME280;5113;41.822;23.564;2023-04-01T05:53:51;-11122.00;;;6.79;100.00
10145;BME280;5113;41.822;23.564;2023-04-01T05:56:57;-11135.19;;;7.26;100.00
10145;BME280;5113;41.822;23.564;2023-04-01T06:00:05;-11138.84;;;7.40;99.13
10145;BME280;5113;41.822;23.564;2023-04-01T06:03:13;-11165.41;;;8.36;92.42
10145;BME280;5113;41.822;23.564;2023-04-01T06:06:23;-11162.75;;;8.26;86.95
10145;BME280;5113;41.822;23.564;2023-04-01T06:09:30;-11189.44;;;9.22;85.31
10145;BME280;5113;41.822;23.564;2023-04-01T06:12:49;-11202.94;;;9.71;77.98
10145;BME280;5113;41.822;23.564;2023-04-01T06:16:04;-11199.16;;;9.57;77.88
10145;BME280;5113;41.822;23.564;2023-04-01T06:19:24;-11214.75;;;10.14;73.44
10145;BME280;5113;41.822;23.564;2023-04-01T06:22:40;-11222.63;;;10.42;72.71
10145;BME280;5113;41.822;23.564;2023-04-01T06:26:05;-11231.06;;;10.73;68.69
10145;BME280;5113;41.822;23.564;2023-04-01T06:29:36;-11219.69;;;10.32;73.23
10145;BME280;5113;41.822;23.564;2023-04-01T06:32:58;-11225.03;;;10.51;71.63
10145;BME280;5113;41.822;23.564;2023-04-01T06:40:20;-11249.66;;;11.40;69.31
10145;BME280;5113;41.822;23.564;2023-04-01T06:43:36;-11249.37;;;11.39;69.30
10145;BME280;5113;41.822;23.564;2023-04-01T06:46:48;-11254.00;;;11.55;67.18
10145;BME280;5113;41.822;23.564;2023-04-01T06:50:05;-11236.16;;;10.91;69.72
10145;BME280;5113;41.822;23.564;2023-04-01T06:53:19;-11248.94;;;11.37;67.67
10145;BME280;5113;41.822;23.564;2023-04-01T06:56:28;-11273.28;;;12.25;64.20
10145;BME280;5113;41.822;23.564;2023-04-01T06:59:36;-11273.00;;;12.24;63.85
10145;BME280;5113;41.822;23.564;2023-04-01T07:02:47;-11273.28;;;12.25;64.17
10145;BME280;5113;41.822;23.564;2023-04-01T07:06:02;-11249.09;;;11.38;68.94
10145;BME280;5113;41.822;23.564;2023-04-01T07:09:13;-11280.75;;;12.52;64.00
10145;BME280;5113;41.822;23.564;2023-04-01T07:12:32;-11292.00;;;12.93;62.14
10145;BME280;5113;41.822;23.564;2023-04-01T07:15:42;-11260.34;;;11.78;66.32
10145;BME280;5113;41.822;23.564;2023-04-01T07:18:52;-11267.94;;;12.06;68.43
10145;BME280;5113;41.822;23.564;2023-04-01T07:22:04;-11268.38;;;12.07;69.39
10145;BME280;5113;41.822;23.564;2023-04-01T07:25:15;-11257.81;;;11.69;71.09
10145;BME280;5113;41.822;23.564;2023-04-01T07:28:22;-11263.59;;;11.90;69.38
10145;BME280;5113;41.822;23.564;2023-04-01T07:31:45;-11293.97;;;13.00;65.58
10145;BME280;5113;41.822;23.564;2023-04-01T07:35:07;-11272.88;;;12.23;67.38
10145;BME280;5113;41.822;23.564;2023-04-01T07:38:20;-11286.78;;;12.74;65.83
10145;BME280;5113;41.822;23.564;2023-04-01T07:41:42;-11301.72;;;13.28;64.26
10145;BME280;5113;41.822;23.564;2023-04-01T07:44:59;-11299.19;;;13.18;62.89
10145;BME280;5113;41.822;23.564;2023-04-01T07:48:20;-11289.19;;;12.82;63.13
10145;BME280;5113;41.822;23.564;2023-04-01T07:51:34;-11303.69;;;13.35;61.84
10145;BME280;5113;41.822;23.564;2023-04-01T07:54:47;-11309.75;;;13.57;62.07
10145;BME280;5113;41.822;23.564;2023-04-01T07:58:02;-11315.38;;;13.77;60.88
10145;BME280;5113;41.822;23.564;2023-04-01T08:01:16;-11316.38;;;13.80;61.25
10145;BME280;5113;41.822;23.564;2023-04-01T08:04:31;-11318.34;;;13.87;61.86
10145;BME280;5113;41.822;23.564;2023-04-01T08:07:45;-11315.81;;;13.78;62.37
10145;BME280;5113;41.822;23.564;2023-04-01T08:11:02;-11303.69;;;13.35;63.03
10145;BME280;5113;41.822;23.564;2023-04-01T08:14:17;-11320.03;;;13.94;63.13
10145;BME280;5113;41.822;23.564;2023-04-01T08:17:32;-11311.44;;;13.63;63.86
10145;BME280;5113;41.822;23.564;2023-04-01T08:20:45;-11308.47;;;13.52;64.25
10145;BME280;5113;41.822;23.564;2023-04-01T08:23:56;-11285.97;;;12.71;65.29
10145;BME280;5113;41.822;23.564;2023-04-01T08:27:09;-11299.19;;;13.18;63.27
10145;BME280;5113;41.822;23.564;2023-04-01T08:30:22;-11300.59;;;13.24;62.07
10145;BME280;5113;41.822;23.564;2023-04-01T08:33:30;-11320.72;;;13.96;60.67
10145;BME280;5113;41.822;23.564;2023-04-01T08:36:40;-11321.44;;;13.99;60.12
10145;BME280;5113;41.822;23.564;2023-04-01T08:39:51;-11337.22;;;14.56;58.25
10145;BME280;5113;41.822;23.564;2023-04-01T08:43:07;-11349.31;;;14.99;56.43
10145;BME280;5113;41.822;23.564;2023-04-01T08:46:32;-11357.06;;;15.27;57.24
10145;BME280;5113;41.822;23.564;2023-04-01T08:50:22;-11362.69;;;15.47;56.29
10145;BME280;5113;41.822;23.564;2023-04-01T08:53:44;-11337.50;;;14.57;57.48
10145;BME280;5113;41.822;23.564;2023-04-01T08:56:58;-11347.06;;;14.91;57.41
10145;BME280;5113;41.822;23.564;2023-04-01T09:03:41;-11338.75;;;14.61;58.13
10145;BME280;5113;41.822;23.564;2023-04-01T09:06:57;-11329.59;;;14.28;58.58
10145;BME280;5113;41.822;23.564;2023-04-01T09:10:40;-11334.09;;;14.44;57.59
10145;BME280;5113;41.822;23.564;2023-04-01T09:14:11;-11332.69;;;14.39;57.50
10145;BME280;5113;41.822;23.564;2023-04-01T09:17:34;-11347.34;;;14.92;57.02
10145;BME280;5113;41.822;23.564;2023-04-01T09:20:56;-11345.09;;;14.84;56.30
10145;BME280;5113;41.822;23.564;2023-04-01T09:24:26;-11353.81;;;15.15;55.42
10145;BME280;5113;41.822;23.564;2023-04-01T09:27:44;-11353.25;;;15.13;55.84
10145;BME280;5113;41.822;23.564;2023-04-01T09:31:12;-11345.66;;;14.86;55.96
10145;BME280;5113;41.822;23.564;2023-04-01T09:34:31;-11343.97;;;14.80;57.62
10145;BME280;5113;41.822;23.564;2023-04-01T09:37:54;-11368.63;;;15.69;54.09
10145;BME280;5113;41.822;23.564;2023-04-01T09:41:10;-11344.53;;;14.82;56.74
10145;BME280;5113;41.822;23.564;2023-04-01T09:44:24;-11383.28;;;16.22;53.37
10145;BME280;5113;41.822;23.564;2023-04-01T09:47:49;-11376.09;;;15.96;53.66
10145;BME280;5113;41.822;23.564;2023-04-01T09:51:05;-11405.69;;;17.02;51.01
10145;BME280;5113;41.822;23.564;2023-04-01T09:54:32;-11424.84;;;17.71;48.44
10145;BME280;5113;41.822;23.564;2023-04-01T09:58:26;-11450.09;;;18.62;46.28
10145;BME280;5113;41.822;23.564;2023-04-01T10:02:14;-11460.66;;;19.00;45.49
10145;BME280;5113;41.822;23.564;2023-04-01T10:09:43;-11468.84;;;19.30;43.66
10145;BME280;5113;41.822;23.564;2023-04-01T10:20:56;-11461.50;;;19.03;44.18
10145;BME280;5113;41.822;23.564;2023-04-01T10:24:31;-11497.03;;;20.31;40.63
10145;BME280;5113;41.822;23.564;2023-04-01T10:28:02;-11515.09;;;20.96;40.24
10145;BME280;5113;41.822;23.564;2023-04-01T10:31:40;-11510.59;;;20.80;41.03
10145;BME280;5113;41.822;23.564;2023-04-01T10:42:54;-11515.09;;;20.96;39.56
10145;BME280;5113;41.822;23.564;2023-04-01T10:46:32;-11542.91;;;21.96;38.19
10145;BME280;5113;41.822;23.564;2023-04-01T10:49:56;-11538.66;;;21.81;38.43
10145;BME280;5113;41.822;23.564;2023-04-01T10:53:34;-11504.09;;;20.57;37.40
10145;BME280;5113;41.822;23.564;2023-04-01T10:57:05;-11497.88;;;20.34;38.52
10145;BME280;5113;41.822;23.564;2023-04-01T11:00:35;-11504.09;;;20.57;39.37
10145;BME280;5113;41.822;23.564;2023-04-01T11:04:10;-11489.72;;;20.05;40.28
10145;BME280;5113;41.822;23.564;2023-04-01T11:11:51;-11569.16;;;22.91;36.70
10145;BME280;5113;41.822;23.564;2023-04-01T11:22:55;-11527.25;;;21.40;38.93
10145;BME280;5113;41.822;23.564;2023-04-01T11:26:14;-11541.91;;;21.93;37.25
10145;BME280;5113;41.822;23.564;2023-04-01T11:29:45;-11522.16;;;21.22;38.24
10145;BME280;5113;41.822;23.564;2023-04-01T11:33:07;-11530.75;;;21.53;39.98
10145;BME280;5113;41.822;23.564;2023-04-01T11:36:32;-11520.19;;;21.15;39.37
10145;BME280;5113;41.822;23.564;2023-04-01T11:39:59;-11533.72;;;21.63;37.79
10145;BME280;5113;41.822;23.564;2023-04-01T11:43:10;-11535.28;;;21.69;38.98
10145;BME280;5113;41.822;23.564;2023-04-01T11:46:41;-11500.16;;;20.42;38.73
10145;BME280;5113;41.822;23.564;2023-04-01T11:50:00;-11513.97;;;20.92;38.57
10145;BME280;5113;41.822;23.564;2023-04-01T11:53:26;-11487.59;;;19.97;38.16
10145;BME280;5113;41.822;23.564;2023-04-01T11:56:44;-11543.88;;;22.00;35.78
10145;BME280;5113;41.822;23.564;2023-04-01T12:03:47;-11508.06;;;20.71;35.02
10145;BME280;5113;41.822;23.564;2023-04-01T12:07:02;-11523.44;;;21.26;35.46
10145;BME280;5113;41.822;23.564;2023-04-01T12:10:18;-11480.13;;;19.70;35.97
10145;BME280;5113;41.822;23.564;2023-04-01T12:13:34;-11510.03;;;20.78;36.43
10145;BME280;5113;41.822;23.564;2023-04-01T12:16:50;-11510.31;;;20.79;36.35
10145;BME280;5113;41.822;23.564;2023-04-01T12:20:09;-11491.53;;;20.11;36.99
10145;BME280;5113;41.822;23.564;2023-04-01T12:23:54;-11459.81;;;18.97;37.97
10145;BME280;5113;41.822;23.564;2023-04-01T12:27:34;-11439.50;;;18.24;39.50
10145;BME280;5113;41.822;23.564;2023-04-01T12:31:05;-11451.63;;;18.68;39.67
10145;BME280;5113;41.822;23.564;2023-04-01T12:34:41;-11457.28;;;18.88;39.68
10145;BME280;5113;41.822;23.564;2023-04-01T12:38:18;-11438.09;;;18.19;40.99
10145;BME280;5113;41.822;23.564;2023-04-01T12:41:32;-11433.88;;;18.04;43.38
10145;BME280;5113;41.822;23.564;2023-04-01T12:44:56;-11423.31;;;17.66;43.70
10145;BME280;5113;41.822;23.564;2023-04-01T12:52:08;-11399.19;;;16.79;49.02
10145;BME280;5113;41.822;23.564;2023-04-01T12:55:35;-11410.75;;;17.21;48.72
10145;BME280;5113;41.822;23.564;2023-04-01T12:59:17;-11420.06;;;17.54;53.02
10145;BME280;5113;41.822;23.564;2023-04-01T13:02:35;-11407.78;;;17.10;53.47
10145;BME280;5113;41.822;23.564;2023-04-01T13:06:13;-11408.91;;;17.14;53.45
10145;BME280;5113;41.822;23.564;2023-04-01T13:09:33;-11412.72;;;17.28;50.85
10145;BME280;5113;41.822;23.564;2023-04-01T13:13:04;-11398.22;;;16.75;49.75
10145;BME280;5113;41.822;23.564;2023-04-01T13:16:16;-11413.28;;;17.30;50.95
10145;BME280;5113;41.822;23.564;2023-04-01T13:19:34;-11416.38;;;17.41;51.56
10145;BME280;5113;41.822;23.564;2023-04-01T13:23:01;-11428.09;;;17.83;50.27
10145;BME280;5113;41.822;23.564;2023-04-01T13:26:14;-11413.56;;;17.31;51.61
10145;BME280;5113;41.822;23.564;2023-04-01T13:29:27;-11413.56;;;17.31;50.55
10145;BME280;5113;41.822;23.564;2023-04-01T13:32:41;-11403.00;;;16.93;52.99
10145;BME280;5113;41.822;23.564;2023-04-01T13:35:59;-11411.59;;;17.24;52.47
10145;BME280;5113;41.822;23.564;2023-04-01T13:39:36;-11415.81;;;17.39;55.34
10145;BME280;5113;41.822;23.564;2023-04-01T13:42:50;-11393.84;;;16.60;58.15
10145;BME280;5113;41.822;23.564;2023-04-01T13:46:31;-11385.09;;;16.28;59.86
10145;BME280;5113;41.822;23.564;2023-04-01T13:49:53;-11371.56;;;15.79;62.55
10145;BME280;5113;41.822;23.564;2023-04-01T13:53:14;-11371.00;;;15.77;57.78
10145;BME280;5113;41.822;23.564;2023-04-01T13:56:41;-11424.56;;;17.70;54.49
10145;BME280;5113;41.822;23.564;2023-04-01T14:00:03;-11448.25;;;18.56;53.20
10145;BME280;5113;41.822;23.564;2023-04-01T14:03:39;-11389.03;;;16.42;55.19
10145;BME280;5113;41.822;23.564;2023-04-01T14:06:59;-11389.47;;;16.44;55.66
10145;BME280;5113;41.822;23.564;2023-04-01T14:10:17;-11431.63;;;17.96;52.09
10145;BME280;5113;41.822;23.564;2023-04-01T14:13:33;-11419.78;;;17.53;53.51
10145;BME280;5113;41.822;23.564;2023-04-01T14:17:18;-11411.47;;;17.23;52.54
10145;BME280;5113;41.822;23.564;2023-04-01T14:20:36;-11393.13;;;16.57;53.53
10145;BME280;5113;41.822;23.564;2023-04-01T14:23:53;-11376.38;;;15.97;58.83
10145;BME280;5113;41.822;23.564;2023-04-01T14:27:25;-11363.13;;;15.49;64.06
10145;BME280;5113;41.822;23.564;2023-04-01T14:30:59;-11380.88;;;16.13;60.80
10145;BME280;5113;41.822;23.564;2023-04-01T14:34:25;-11374.13;;;15.89;64.13
10145;BME280;5113;41.822;23.564;2023-04-01T14:41:30;-11354.94;;;15.19;71.12
10145;BME280;5113;41.822;23.564;2023-04-01T14:45:02;-11347.34;;;14.92;74.44
10145;BME280;5113;41.822;23.564;2023-04-01T14:48:21;-11329.03;;;14.26;79.96
10145;BME280;5113;41.822;23.564;2023-04-01T14:51:32;-11331.00;;;14.33;79.52
10145;BME280;5113;41.822;23.564;2023-04-01T14:54:42;-11332.56;;;14.39;79.59
10145;BME280;5113;41.822;23.564;2023-04-01T14:57:59;-11331.72;;;14.36;80.19
10145;BME280;5113;41.822;23.564;2023-04-01T15:01:25;-11329.03;;;14.26;81.64
10145;BME280;5113;41.822;23.564;2023-04-01T15:04:44;-11329.03;;;14.26;84.97
10145;BME280;5113;41.822;23.564;2023-04-01T15:08:08;-11296.09;;;13.07;97.37
10145;BME280;5113;41.822;23.564;2023-04-01T15:11:23;-11250.78;;;11.44;97.52
10145;BME280;5113;41.822;23.564;2023-04-01T15:14:46;-11238.38;;;10.99;100.00
10145;BME280;5113;41.822;23.564;2023-04-01T15:18:06;-11216.16;;;10.19;100.00
10145;BME280;5113;41.822;23.564;2023-04-01T15:21:25;-11228.69;;;10.64;100.00
10145;BME280;5113;41.822;23.564;2023-04-01T15:24:46;-11242.59;;;11.14;100.00
10145;BME280;5113;41.822;23.564;2023-04-01T15:28:00;-11255.56;;;11.61;100.00
10145;BME280;5113;41.822;23.564;2023-04-01T15:31:15;-11267.25;;;12.03;100.00
10145;BME280;5113;41.822;23.564;2023-04-01T15:34:33;-11268.22;;;12.07;100.00
10145;BME280;5113;41.822;23.564;2023-04-01T15:37:48;-11277.09;;;12.39;100.00
10145;BME280;5113;41.822;23.564;2023-04-01T15:41:03;-11258.66;;;11.72;100.00
10145;BME280;5113;41.822;23.564;2023-04-01T15:44:37;-11278.63;;;12.44;100.00
10145;BME280;5113;41.822;23.564;2023-04-01T15:47:52;-11286.78;;;12.74;100.00
10145;BME280;5113;41.822;23.564;2023-04-01T15:51:12;-11269.34;;;12.11;100.00
10145;BME280;5113;41.822;23.564;2023-04-01T15:54:32;-11274.28;;;12.29;100.00
10145;BME280;5113;41.822;23.564;2023-04-01T15:57:54;-11272.72;;;12.23;100.00
10145;BME280;5113;41.822;23.564;2023-04-01T16:01:19;-11268.94;;;12.09;100.00
10145;BME280;5113;41.822;23.564;2023-04-01T16:04:44;-11273.84;;;12.27;100.00
10145;BME280;5113;41.822;23.564;2023-04-01T16:08:17;-11271.59;;;12.19;100.00
10145;BME280;5113;41.822;23.564;2023-04-01T16:11:30;-11265.13;;;11.96;100.00
10145;BME280;5113;41.822;23.564;2023-04-01T16:14:50;-11272.16;;;12.21;100.00
10145;BME280;5113;41.822;23.564;2023-04-01T16:18:18;-11256.13;;;11.63;100.00
10145;BME280;5113;41.822;23.564;2023-04-01T16:21:37;-11257.66;;;11.69;100.00
10145;BME280;5113;41.822;23.564;2023-04-01T16:24:49;-11255.97;;;11.63;100.00
10145;BME280;5113;41.822;23.564;2023-04-01T16:28:09;-11256.41;;;11.64;100.00
10145;BME280;5113;41.822;23.564;2023-04-01T16:31:30;-11256.81;;;11.66;100.00
10145;BME280;5113;41.822;23.564;2023-04-01T16:34:41;-11242.88;;;11.15;100.00
10145;BME280;5113;41.822;23.564;2023-04-01T16:37:53;-11232.75;;;10.79;100.00
10145;BME280;5113;41.822;23.564;2023-04-01T16:41:11;-11250.22;;;11.42;100.00
10145;BME280;5113;41.822;23.564;2023-04-01T16:44:22;-11246.56;;;11.29;100.00
10145;BME280;5113;41.822;23.564;2023-04-01T16:47:31;-11235.44;;;10.88;100.00
10145;BME280;5113;41.822;23.564;2023-04-01T16:50:52;-11230.78;;;10.72;100.00
10145;BME280;5113;41.822;23.564;2023-04-01T16:54:05;-11234.31;;;10.84;100.00
10145;BME280;5113;41.822;23.564;2023-04-01T16:57:19;-11226.56;;;10.56;100.00
10145;BME280;5113;41.822;23.564;2023-04-01T17:00:27;-11219.81;;;10.32;100.00
10145;BME280;5113;41.822;23.564;2023-04-01T17:03:39;-11223.47;;;10.45;100.00
10145;BME280;5113;41.822;23.564;2023-04-01T17:06:50;-11229.94;;;10.69;100.00
10145;BME280;5113;41.822;23.564;2023-04-01T17:10:34;-11224.47;;;10.49;100.00
10145;BME280;5113;41.822;23.564;2023-04-01T17:13:47;-11221.38;;;10.38;100.00
10145;BME280;5113;41.822;23.564;2023-04-01T17:17:08;-11232.19;;;10.77;100.00
10145;BME280;5113;41.822;23.564;2023-04-01T17:20:31;-11230.22;;;10.70;100.00
10145;BME280;5113;41.822;23.564;2023-04-01T17:23:44;-11235.31;;;10.88;100.00
10145;BME280;5113;41.822;23.564;2023-04-01T17:27:00;-11248.53;;;11.36;100.00
10145;BME280;5113;41.822;23.564;2023-04-01T17:30:32;-11244.59;;;11.21;100.00
10145;BME280;5113;41.822;23.564;2023-04-01T17:34:04;-11235.31;;;10.88;100.00
10145;BME280;5113;41.822;23.564;2023-04-01T17:37:29;-11235.31;;;10.88;100.00
10145;BME280;5113;41.822;23.564;2023-04-01T17:40:50;-11239.50;;;11.03;100.00
10145;BME280;5113;41.822;23.564;2023-04-01T17:44:16;-11240.91;;;11.08;100.00
10145;BME280;5113;41.822;23.564;2023-04-01T17:47:36;-11233.03;;;10.80;100.00
10145;BME280;5113;41.822;23.564;2023-04-01T17:50:53;-11223.34;;;10.45;100.00
10145;BME280;5113;41.822;23.564;2023-04-01T17:54:11;-11228.69;;;10.64;100.00
10145;BME280;5113;41.822;23.564;2023-04-01T17:57:34;-11239.78;;;11.04;100.00